Airfield :
LOGIN :

Register | Disclaimer

   EN    FR    IT 

 










Legend :    VFR   Marginal VFR   IFR   Intensive IFR   Very Intensive IFR
Visi :
Ceiling :
>= 8 km
>= 3000ft
5 to 8 km
1000 to 3000 ft
1500m to 5 km
500 to 1000 ft
800 to 1500m
200 to 500 ft
< 800m
< 200 ft
Symbols :   Thunderstorms  Fog  Heavy snow  Heavy precipitations  Wind > 20 kt
SIGMETs :     Misc.  Thunderstorms  Icing  Turbulence  Mountain Waves  Volcanic Ashes







- Airport Elevation : 1947 ft
- IATA code : OBF


EDMO - Oberpfaffenhofen

CURRENT METAR :
  • 121750Z 22006KT CAVOK 00/M01 Q1015

EXPIRED METARs :
  • 121720Z 23008KT 9999 SCT041 BKN110 00/M01 Q1014
  • 121650Z 20008KT 9999 SCT041 BKN110 00/M01 Q1014
  • 121620Z 22005KT 9999 SCT043 00/M01 Q1013
  • 121550Z 22007KT 9999 FEW020 SCT043 00/M01 Q1013
  • 121520Z 20005KT 9999 FEW020 SCT054 00/M00 Q1013

TAF TAF EDMO
Valid from the 12 at 18:00 until the 13 at 03:00 UTC


121700Z 1218/1303 20006KT 9999 BKN040
PROB30
TEMPO 1218/1220 4000 -SN
No reported NOTAMs for that airfield.



MET'MAP, your aeronautical weather chart ! - Copyright ORBIFLY December 2007 - Disclaimer

ORBIFLY MET'MAP TEAM :

Programming & Development : Alexandra Zaïnal
Concept & Development : Baudouin d'Aumeries
Co-Development & Prog : Marc-Olivier Méhu
Technical & hardware support : Manuel Goepfert

Contact : metmap@orbifly.com




SOURCES & CREDITS :

   NOAA